createdAt,value
2023-02-16T00:00:33.877Z,149.77
2023-02-16T00:03:22.961Z,128.70
2023-02-16T00:06:18.751Z,128.40
2023-02-16T00:09:06.319Z,145.20
2023-02-16T00:12:12.913Z,127.18
2023-02-16T00:15:00.503Z,160.63
2023-02-16T00:17:48.093Z,138.93
2023-02-16T00:20:35.663Z,132.75
2023-02-16T00:23:24.568Z,135.98
2023-02-16T00:26:21.701Z,126.13
2023-02-16T00:29:21.376Z,131.60
2023-02-16T00:32:12.716Z,146.70
2023-02-16T00:35:01.172Z,175.88
2023-02-16T00:37:49.342Z,165.30
2023-02-16T00:40:37.105Z,152.98
2023-02-16T00:43:28.223Z,131.07
2023-02-16T00:46:15.856Z,158.95
2023-02-16T00:49:04.256Z,129.85
2023-02-16T00:51:52.405Z,164.43
2023-02-16T00:54:40.098Z,140.45
2023-02-16T00:57:32.349Z,169.02
2023-02-16T01:00:24.238Z,127.70
2023-02-16T01:03:25.796Z,134.43
2023-02-16T01:06:31.894Z,165.25
2023-02-16T01:09:39.690Z,139.75
2023-02-16T01:12:27.500Z,138.05
2023-02-16T01:15:19.382Z,168.50
2023-02-16T01:18:07.553Z,119.90
2023-02-16T01:20:56.117Z,135.52
2023-02-16T01:23:43.897Z,130.40
2023-02-16T01:26:35.350Z,145.18
2023-02-16T01:29:23.049Z,127.13
2023-02-16T01:32:12.650Z,145.63
2023-02-16T01:35:00.375Z,142.30
2023-02-16T01:37:48.654Z,144.10
2023-02-16T01:40:42.852Z,163.38
2023-02-16T01:43:44.674Z,132.15
2023-02-16T01:46:56.909Z,156.02
2023-02-16T01:49:44.637Z,165.20
2023-02-16T01:52:35.743Z,135.45
2023-02-16T01:55:29.689Z,151.15
2023-02-16T01:58:36.231Z,148.68
2023-02-16T02:01:38.484Z,142.32
2023-02-16T02:04:48.078Z,120.65
2023-02-16T02:08:04.340Z,175.43
2023-02-16T02:11:12.362Z,147.68
2023-02-16T02:14:08.947Z,145.38
2023-02-16T02:16:59.551Z,128.98
2023-02-16T02:19:52.796Z,124.82
2023-02-16T02:23:27.052Z,120.32
2023-02-16T02:26:29.933Z,110.32
2023-02-16T02:29:38.811Z,123.45
2023-02-16T02:33:05.477Z,154.88
2023-02-16T02:36:20.133Z,156.30
2023-02-16T02:39:07.652Z,122.55
2023-02-16T02:42:18.428Z,152.15
2023-02-16T02:45:26.834Z,148.07
2023-02-16T02:48:14.390Z,161.23
2023-02-16T02:51:30.460Z,135.70
2023-02-16T02:54:52.334Z,145.57
2023-02-16T02:58:06.282Z,157.18
2023-02-16T03:00:54.828Z,117.97
2023-02-16T03:03:47.811Z,123.15
2023-02-16T03:06:44.264Z,89.27
2023-02-16T03:09:31.928Z,114.90
2023-02-16T03:12:38.327Z,114.75
2023-02-16T03:15:27.681Z,117.82
2023-02-16T03:18:35.201Z,101.32
2023-02-16T03:21:43.713Z,124.97
2023-02-16T03:24:51.929Z,114.93
2023-02-16T03:28:02.576Z,114.20
2023-02-16T03:30:51.605Z,103.22
2023-02-16T03:33:40.546Z,111.30
2023-02-16T03:36:31.923Z,135.60
2023-02-16T03:39:20.743Z,109.63
2023-02-16T03:42:08.424Z,139.90
2023-02-16T03:44:56.373Z,148.57
2023-02-16T03:47:43.874Z,125.78
2023-02-16T03:50:31.797Z,125.15
2023-02-16T03:53:19.361Z,134.30
2023-02-16T03:56:06.886Z,106.32
2023-02-16T03:58:54.684Z,108.18
2023-02-16T04:01:42.345Z,104.90
2023-02-16T04:04:29.909Z,122.07
2023-02-16T04:07:17.515Z,91.72
2023-02-16T04:10:05.575Z,113.53
2023-02-16T04:12:53.212Z,88.15
2023-02-16T04:15:43.739Z,102.47
2023-02-16T04:18:31.381Z,97.03
2023-02-16T04:21:18.910Z,115.47
2023-02-16T04:24:06.736Z,100.32
2023-02-16T04:26:54.288Z,96.97
2023-02-16T04:29:42.075Z,86.93
2023-02-16T04:32:30.256Z,98.25
2023-02-16T04:35:21.338Z,98.95
2023-02-16T04:38:08.962Z,98.68
2023-02-16T04:40:59.294Z,128.45
2023-02-16T04:43:46.897Z,121.80
2023-02-16T04:46:34.503Z,113.50
2023-02-16T04:49:22.736Z,100.85
2023-02-16T04:52:13.696Z,100.38
2023-02-16T04:55:04.858Z,102.13
2023-02-16T04:57:55.604Z,89.00
2023-02-16T05:00:43.680Z,99.57
2023-02-16T05:03:31.401Z,74.32
2023-02-16T05:06:19.316Z,78.95
2023-02-16T05:09:07.888Z,91.22
2023-02-16T05:12:14.104Z,81.32
2023-02-16T05:15:01.803Z,85.45
2023-02-16T05:17:49.395Z,84.55
2023-02-16T05:20:55.725Z,88.00
2023-02-16T05:23:43.229Z,92.18
2023-02-16T05:26:35.919Z,88.82
2023-02-16T05:29:23.608Z,87.63
2023-02-16T05:32:11.712Z,97.47
2023-02-16T05:34:59.305Z,105.10
2023-02-16T05:37:46.732Z,83.25
2023-02-16T05:40:34.309Z,82.80
2023-02-16T05:43:21.879Z,86.80
2023-02-16T05:46:09.899Z,90.07
2023-02-16T05:48:57.595Z,86.18
2023-02-16T05:51:45.982Z,84.78
2023-02-16T05:54:33.644Z,103.25
2023-02-16T05:57:21.259Z,94.40
2023-02-16T06:00:10.089Z,97.10
2023-02-16T06:02:57.685Z,104.70
2023-02-16T06:05:45.466Z,97.70
2023-02-16T06:08:37.175Z,106.07
2023-02-16T06:11:36.707Z,103.65
2023-02-16T06:14:24.322Z,92.35
2023-02-16T06:17:11.871Z,90.93
2023-02-16T06:20:02.647Z,101.05
2023-02-16T06:22:50.373Z,99.53
2023-02-16T06:25:38.279Z,97.68
2023-02-16T06:28:25.869Z,100.80
2023-02-16T06:31:16.164Z,93.43
2023-02-16T06:34:04.712Z,97.85
2023-02-16T06:36:52.287Z,89.10
2023-02-16T06:39:39.893Z,96.97
2023-02-16T06:42:27.509Z,85.03
2023-02-16T06:45:15.135Z,84.00
2023-02-16T06:48:02.593Z,104.25
2023-02-16T06:50:50.787Z,92.32
2023-02-16T06:53:38.227Z,99.53
2023-02-16T06:56:28.487Z,99.53
2023-02-16T06:59:16.050Z,90.45
2023-02-16T07:02:09.934Z,89.95
2023-02-16T07:04:57.554Z,92.72
2023-02-16T07:07:45.133Z,99.60
2023-02-16T07:10:47.692Z,100.47
2023-02-16T07:16:24.369Z,102.95
2023-02-16T07:19:12.318Z,98.80
2023-02-16T07:22:01.316Z,111.32
2023-02-16T07:24:49.033Z,100.72
2023-02-16T07:27:36.767Z,110.93
2023-02-16T07:30:27.661Z,106.13
2023-02-16T07:33:16.220Z,93.45
2023-02-16T07:36:04.919Z,92.15
2023-02-16T07:38:56.123Z,77.45
2023-02-16T07:41:44.066Z,77.20
2023-02-16T07:44:31.897Z,85.88
2023-02-16T07:47:19.587Z,78.07
2023-02-16T07:50:08.875Z,82.88
2023-02-16T07:53:00.104Z,79.30
2023-02-16T07:55:47.610Z,84.07
2023-02-16T07:58:35.053Z,85.05
2023-02-16T08:01:23.409Z,89.72
2023-02-16T08:04:11.363Z,91.82
2023-02-16T08:06:59.632Z,84.07
2023-02-16T08:09:50.082Z,86.97
2023-02-16T08:12:40.026Z,101.35
2023-02-16T08:15:27.462Z,100.65
2023-02-16T08:18:15.257Z,101.53
2023-02-16T08:21:14.606Z,101.03
2023-02-16T08:24:05.666Z,104.38
2023-02-16T08:26:53.976Z,96.53
2023-02-16T08:29:42.586Z,102.97
2023-02-16T08:32:32.027Z,107.55
2023-02-16T08:35:20.374Z,111.30
2023-02-16T08:38:09.350Z,105.97
2023-02-16T08:40:59.728Z,112.70
2023-02-16T08:43:48.215Z,122.35
2023-02-16T08:46:39.195Z,105.72
2023-02-16T08:49:27.682Z,95.80
2023-02-16T08:52:15.589Z,103.43
2023-02-16T08:55:03.760Z,101.82
2023-02-16T08:57:51.348Z,94.20
2023-02-16T09:00:42.341Z,103.65
2023-02-16T09:03:33.078Z,97.47
2023-02-16T09:06:22.949Z,97.78
2023-02-16T09:09:11.091Z,88.47
2023-02-16T09:11:59.524Z,92.88
2023-02-16T09:14:47.208Z,74.07
2023-02-16T09:17:35.050Z,84.53
2023-02-16T09:20:26.089Z,75.55
2023-02-16T09:23:20.341Z,70.93
2023-02-16T09:26:14.064Z,67.70
2023-02-16T09:29:07.173Z,64.50
2023-02-16T09:31:55.073Z,68.90
2023-02-16T09:34:44.902Z,70.10
2023-02-16T09:37:33.382Z,66.28
2023-02-16T09:40:21.694Z,60.30
2023-02-16T09:43:39.765Z,63.90
2023-02-16T09:46:30.470Z,57.65
2023-02-16T09:49:44.937Z,58.72
2023-02-16T09:52:40.501Z,56.30
2023-02-16T09:55:38.422Z,53.90
2023-02-16T09:58:46.676Z,54.75
2023-02-16T10:01:34.968Z,50.38
2023-02-16T10:04:31.480Z,50.65
2023-02-16T10:07:47.738Z,53.80
2023-02-16T10:10:51.030Z,47.80
2023-02-16T10:13:49.557Z,47.07
2023-02-16T10:16:42.681Z,44.83
2023-02-16T10:19:54.823Z,45.03
2023-02-16T10:23:11.569Z,41.15
2023-02-16T10:26:24.774Z,44.97
2023-02-16T10:29:19.059Z,44.10
2023-02-16T10:32:26.984Z,44.83
2023-02-16T10:35:20.840Z,46.10
2023-02-16T10:41:38.167Z,42.30
2023-02-16T10:44:33.307Z,43.65
2023-02-16T10:47:30.284Z,43.90
2023-02-16T10:50:26.788Z,44.20
2023-02-16T10:53:50.010Z,40.75
2023-02-16T10:56:54.160Z,41.05
2023-02-16T11:02:43.647Z,42.95
2023-02-16T11:05:38.263Z,45.55
2023-02-16T11:08:46.126Z,43.33
2023-02-16T11:11:42.691Z,44.22
2023-02-16T11:14:31.533Z,48.83
2023-02-16T11:17:22.495Z,49.65
2023-02-16T11:20:28.829Z,48.03
2023-02-16T11:23:32.025Z,49.00
2023-02-16T11:26:19.757Z,50.85
2023-02-16T11:29:19.585Z,50.80
2023-02-16T11:32:13.316Z,47.30
2023-02-16T11:35:00.854Z,47.25
2023-02-16T11:37:51.353Z,47.05
2023-02-16T11:40:38.861Z,46.08
2023-02-16T11:43:32.843Z,46.47
2023-02-16T11:49:28.659Z,45.75
2023-02-16T11:52:24.335Z,48.35
2023-02-16T11:55:24.236Z,48.03
2023-02-16T11:58:16.756Z,47.33
2023-02-16T12:01:28.318Z,44.10
2023-02-16T12:04:50.843Z,46.63
2023-02-16T12:08:06.612Z,45.15
2023-02-16T12:11:25.560Z,45.70
2023-02-16T12:14:38.060Z,44.65
2023-02-16T12:17:35.188Z,46.63
2023-02-16T12:20:49.401Z,46.20
2023-02-16T12:23:39.911Z,40.40
2023-02-16T12:26:39.084Z,41.63
2023-02-16T12:29:27.083Z,42.08
2023-02-16T12:32:23.040Z,38.08
2023-02-16T12:35:33.347Z,39.13
2023-02-16T12:38:52.240Z,36.38
2023-02-16T12:41:58.252Z,41.00
2023-02-16T12:44:50.372Z,39.38
2023-02-16T12:48:20.382Z,38.22
2023-02-16T12:51:12.979Z,40.28
2023-02-16T12:54:11.723Z,41.35
2023-02-16T12:57:10.563Z,39.08
2023-02-16T13:00:11.591Z,37.85
2023-02-16T13:03:17.444Z,40.20
2023-02-16T13:06:08.542Z,37.97
2023-02-16T13:09:29.436Z,39.85
2023-02-16T13:12:47.246Z,40.15
2023-02-16T13:15:51.031Z,37.13
2023-02-16T13:18:42.655Z,38.20
2023-02-16T13:21:51.636Z,40.30
2023-02-16T13:25:14.702Z,39.88
2023-02-16T13:28:22.955Z,37.30
2023-02-16T13:31:37.034Z,37.33
2023-02-16T13:35:01.802Z,39.08
2023-02-16T13:41:02.992Z,37.72
2023-02-16T13:43:58.324Z,38.05
2023-02-16T13:46:50.365Z,36.33
2023-02-16T13:49:42.892Z,36.53
2023-02-16T13:52:42.596Z,38.13
2023-02-16T13:55:34.681Z,37.25
2023-02-16T13:58:31.849Z,37.28
2023-02-16T14:01:39.321Z,37.00
2023-02-16T14:04:27.161Z,36.67
2023-02-16T14:07:31.796Z,37.95
2023-02-16T14:10:56.694Z,37.85
2023-02-16T14:13:58.259Z,35.85
2023-02-16T14:16:46.836Z,37.80
2023-02-16T14:19:36.826Z,37.03
2023-02-16T14:22:48.921Z,38.40
2023-02-16T14:25:40.882Z,36.92
2023-02-16T14:28:32.178Z,39.40
2023-02-16T14:31:23.258Z,39.00
2023-02-16T14:34:24.537Z,37.45
2023-02-16T14:37:15.443Z,37.97
2023-02-16T14:40:31.108Z,39.78
2023-02-16T14:43:43.345Z,38.97
2023-02-16T14:46:58.433Z,37.40
2023-02-16T14:50:04.456Z,37.80
2023-02-16T14:53:10.467Z,39.40
2023-02-16T14:56:32.212Z,36.97
2023-02-16T14:59:32.842Z,37.40
2023-02-16T15:02:40.099Z,40.72
2023-02-16T15:05:34.747Z,38.13
2023-02-16T15:08:25.484Z,40.83
2023-02-16T15:11:23.744Z,41.00
2023-02-16T15:14:17.598Z,40.47
2023-02-16T15:17:08.618Z,43.15
2023-02-16T15:20:05.889Z,42.80
2023-02-16T15:23:11.918Z,40.15
2023-02-16T15:26:07.610Z,41.80
2023-02-16T15:28:59.903Z,40.72
2023-02-16T15:31:48.935Z,43.05
2023-02-16T15:34:41.448Z,43.28
2023-02-16T15:37:44.152Z,42.53
2023-02-16T15:40:37.457Z,41.83
2023-02-16T15:43:44.704Z,40.85
2023-02-16T15:46:38.721Z,41.67
2023-02-16T15:52:38.515Z,42.42
2023-02-16T15:55:27.260Z,41.55
2023-02-16T15:58:16.820Z,43.78
2023-02-16T16:01:05.094Z,41.17
2023-02-16T16:03:55.795Z,41.92
2023-02-16T16:06:51.920Z,44.38
2023-02-16T16:09:41.358Z,43.05
2023-02-16T16:12:31.989Z,43.35
2023-02-16T16:15:23.432Z,43.35
2023-02-16T16:18:46.726Z,41.03
2023-02-16T16:21:36.025Z,42.42
2023-02-16T16:24:42.650Z,42.65
2023-02-16T16:27:47.977Z,44.17
2023-02-16T16:30:45.429Z,44.47
2023-02-16T16:34:33.251Z,45.97
2023-02-16T16:37:33.634Z,46.47
2023-02-16T16:40:27.040Z,45.85
2023-02-16T16:43:17.439Z,42.75
2023-02-16T16:46:19.370Z,44.78
2023-02-16T16:49:15.901Z,43.65
2023-02-16T16:52:06.869Z,47.22
2023-02-16T16:54:54.420Z,50.28
2023-02-16T16:57:46.606Z,47.85
2023-02-16T17:00:42.723Z,44.15
2023-02-16T18:35:32.309Z,49.63
2023-02-16T18:38:54.722Z,51.15
2023-02-16T18:52:29.107Z,49.97
2023-02-16T18:55:54.674Z,53.70
2023-02-16T21:43:35.015Z,50.00
2023-02-16T21:50:24.247Z,52.42
2023-02-16T21:53:35.606Z,49.60
2023-02-16T22:19:59.173Z,38.92
2023-02-16T22:22:51.010Z,37.47
2023-02-16T22:30:00.284Z,34.95
2023-02-16T22:33:13.717Z,34.35
2023-02-16T22:36:33.954Z,35.05
2023-02-16T22:39:25.932Z,34.95
2023-02-16T22:42:19.207Z,35.72
2023-02-16T22:45:31.170Z,34.90
2023-02-16T22:52:34.218Z,33.95
2023-02-16T22:55:24.823Z,33.50
2023-02-16T23:01:43.914Z,32.95
2023-02-16T23:05:13.915Z,33.40
2023-02-16T23:08:24.687Z,32.28
2023-02-16T23:14:44.977Z,31.98
2023-02-16T23:18:06.824Z,31.25
2023-02-16T23:23:43.131Z,35.17
2023-02-16T23:26:37.840Z,33.63
2023-02-16T23:29:28.940Z,37.72
2023-02-16T23:32:56.182Z,37.13
2023-02-16T23:47:15.182Z,36.67
2023-02-16T23:50:21.910Z,36.65
